createdAt,value
2018-08-18T00:00:17.436Z,65.30
2018-08-18T00:02:45.407Z,64.90
2018-08-18T00:05:14.044Z,64.90
2018-08-18T00:07:42.016Z,65.30
2018-08-18T00:10:11.307Z,65.90
2018-08-18T00:12:40.163Z,66.30
2018-08-18T00:15:09.204Z,66.00
2018-08-18T00:17:37.578Z,65.70
2018-08-18T00:20:08.200Z,65.70
2018-08-18T00:22:36.180Z,66.00
2018-08-18T00:25:04.651Z,66.40
2018-08-18T00:27:32.927Z,66.90
2018-08-18T00:30:06.417Z,66.90
2018-08-18T00:32:34.388Z,67.40
2018-08-18T00:35:02.356Z,67.00
2018-08-18T00:37:30.302Z,67.20
2018-08-18T00:39:58.250Z,67.10
2018-08-18T00:42:26.377Z,67.30
2018-08-18T00:44:54.486Z,67.20
2018-08-18T00:47:22.949Z,67.20
2018-08-18T00:49:50.951Z,66.80
2018-08-18T00:52:18.920Z,66.80
2018-08-18T00:54:46.892Z,67.40
2018-08-18T00:57:27.472Z,67.70
2018-08-18T00:59:55.874Z,67.70
2018-08-18T01:02:23.944Z,67.60
2018-08-18T01:05:00.212Z,67.30
2018-08-18T01:07:29.114Z,67.20
2018-08-18T01:09:57.280Z,67.30
2018-08-18T01:12:25.882Z,67.80
2018-08-18T01:14:54.188Z,68.10
2018-08-18T01:17:22.217Z,68.40
2018-08-18T01:19:52.590Z,68.50
2018-08-18T01:22:20.552Z,68.60
2018-08-18T01:24:49.899Z,68.80
2018-08-18T01:27:17.903Z,69.00
2018-08-18T01:29:50.155Z,69.10
2018-08-18T01:32:18.204Z,69.30
2018-08-18T01:34:46.289Z,69.50
2018-08-18T01:37:18.753Z,69.60
2018-08-18T01:39:47.816Z,69.70
2018-08-18T01:42:15.888Z,69.80
2018-08-18T01:44:43.955Z,70.00
2018-08-18T01:47:12.065Z,70.10
2018-08-18T01:49:40.185Z,70.10
2018-08-18T01:52:14.783Z,69.90
2018-08-18T01:54:43.163Z,70.20
2018-08-18T01:57:12.096Z,70.10
2018-08-18T01:59:41.281Z,70.30
2018-08-18T02:02:15.062Z,71.30
2018-08-18T02:04:43.553Z,70.10
2018-08-18T02:07:20.852Z,70.00
2018-08-18T02:09:48.786Z,70.20
2018-08-18T02:12:16.754Z,70.60
2018-08-18T02:14:44.743Z,71.00
2018-08-18T02:17:22.460Z,71.30
2018-08-18T02:19:50.581Z,71.40
2018-08-18T02:22:18.508Z,71.60
2018-08-18T02:24:46.528Z,71.80
2018-08-18T02:27:15.557Z,71.90
2018-08-18T02:29:44.383Z,71.90
2018-08-18T02:32:27.460Z,72.20
2018-08-18T02:34:56.065Z,72.40
2018-08-18T02:37:24.210Z,72.30
2018-08-18T02:39:52.182Z,72.20
2018-08-18T02:42:20.124Z,72.20
2018-08-18T02:44:48.066Z,72.20
2018-08-18T02:47:16.046Z,72.40
2018-08-18T02:49:48.115Z,72.90
2018-08-18T02:52:28.057Z,73.10
2018-08-18T02:54:59.677Z,73.20
2018-08-18T02:57:31.777Z,73.20
2018-08-18T03:00:00.847Z,73.40
2018-08-18T03:02:29.933Z,73.70
2018-08-18T03:04:57.955Z,73.60
2018-08-18T03:07:28.672Z,73.70
2018-08-18T03:09:56.610Z,73.50
2018-08-18T03:12:24.971Z,73.20
2018-08-18T03:14:52.943Z,73.00
2018-08-18T03:17:20.895Z,73.20
2018-08-18T03:19:48.896Z,73.60
2018-08-18T03:22:16.916Z,74.00
2018-08-18T03:24:44.981Z,74.20
2018-08-18T03:27:13.061Z,74.60
2018-08-18T03:29:46.606Z,74.90
2018-08-18T03:32:14.589Z,75.10
2018-08-18T03:34:42.563Z,75.10
2018-08-18T03:37:25.084Z,75.30
2018-08-18T03:39:53.125Z,75.40
2018-08-18T03:42:23.083Z,75.20
2018-08-18T03:44:55.047Z,75.10
2018-08-18T03:47:23.180Z,74.90
2018-08-18T03:49:51.283Z,74.70
2018-08-18T03:52:19.423Z,74.40
2018-08-18T03:54:47.511Z,74.50
2018-08-18T03:57:15.570Z,74.60
2018-08-18T03:59:43.678Z,74.10
2018-08-18T04:02:11.759Z,74.10
2018-08-18T04:04:39.850Z,74.40
2018-08-18T04:07:08.848Z,74.80
2018-08-18T04:09:38.066Z,75.30
2018-08-18T04:12:07.599Z,75.80
2018-08-18T04:14:44.055Z,76.20
2018-08-18T04:17:25.152Z,76.00
2018-08-18T04:19:53.205Z,75.90
2018-08-18T04:22:22.435Z,75.70
2018-08-18T04:24:50.383Z,75.70
2018-08-18T04:27:33.079Z,75.70
2018-08-18T04:30:01.035Z,76.10
2018-08-18T04:32:29.324Z,77.10
2018-08-18T04:34:57.396Z,76.90
2018-08-18T04:37:25.367Z,78.10
2018-08-18T04:39:53.356Z,78.90
2018-08-18T04:42:21.320Z,79.50
2018-08-18T04:44:49.357Z,79.30
2018-08-18T04:47:28.028Z,78.60
2018-08-18T04:49:55.981Z,78.40
2018-08-18T04:52:24.129Z,78.10
2018-08-18T04:54:52.125Z,77.50
2018-08-18T04:57:20.143Z,76.60
2018-08-18T04:59:48.090Z,77.00
2018-08-18T05:02:16.261Z,76.10
2018-08-18T05:04:44.231Z,75.70
2018-08-18T05:07:12.356Z,75.50
2018-08-18T05:09:40.405Z,75.90
2018-08-18T05:12:08.611Z,76.10
2018-08-18T05:14:36.810Z,75.70
2018-08-18T05:17:04.960Z,75.90
2018-08-18T05:19:33.205Z,75.70
2018-08-18T05:22:01.226Z,75.40
2018-08-18T05:24:30.846Z,75.40
2018-08-18T05:27:01.891Z,75.20
2018-08-18T05:29:29.864Z,75.60
2018-08-18T05:31:57.864Z,75.70
2018-08-18T05:34:25.812Z,75.50
2018-08-18T05:36:59.707Z,75.40
2018-08-18T05:39:27.687Z,75.30
2018-08-18T05:41:55.622Z,75.10
2018-08-18T05:44:23.612Z,75.00
2018-08-18T05:46:51.557Z,74.90
2018-08-18T05:49:19.612Z,74.60
2018-08-18T05:51:49.162Z,74.70
2018-08-18T05:54:22.568Z,74.40
2018-08-18T05:56:50.522Z,74.10
2018-08-18T05:59:18.487Z,73.60
2018-08-18T06:01:46.464Z,73.70
2018-08-18T06:04:15.670Z,73.40
2018-08-18T06:06:44.542Z,72.90
2018-08-18T06:09:13.746Z,72.90
2018-08-18T06:11:41.987Z,72.70
2018-08-18T06:14:11.118Z,72.60
2018-08-18T06:16:40.104Z,72.30
2018-08-18T06:19:08.176Z,72.20
2018-08-18T06:21:36.192Z,72.30
2018-08-18T06:24:04.534Z,72.10
2018-08-18T06:26:32.502Z,71.90
2018-08-18T06:29:00.482Z,71.80
2018-08-18T06:31:28.434Z,71.20
2018-08-18T06:33:56.424Z,71.30
2018-08-18T06:36:24.425Z,71.50
2018-08-18T06:38:52.425Z,70.80
2018-08-18T06:41:20.409Z,70.80
2018-08-18T06:43:48.360Z,70.90
2018-08-18T06:46:16.314Z,70.80
2018-08-18T06:48:44.250Z,70.90
2018-08-18T06:51:12.338Z,70.30
2018-08-18T06:53:46.031Z,69.80
2018-08-18T06:56:14.135Z,69.50
2018-08-18T06:58:42.282Z,68.80
2018-08-18T07:01:10.804Z,68.20
2018-08-18T07:03:40.715Z,67.30
2018-08-18T07:06:10.786Z,66.90
2018-08-18T07:08:44.428Z,67.10
2018-08-18T07:11:12.653Z,66.90
2018-08-18T07:13:41.431Z,66.60
2018-08-18T07:16:09.447Z,65.80
2018-08-18T07:18:37.805Z,64.60
2018-08-18T07:21:05.748Z,63.90
2018-08-18T07:23:33.852Z,64.20
2018-08-18T07:26:02.992Z,64.40
2018-08-18T07:28:31.080Z,64.30
2018-08-18T07:30:59.212Z,63.90
2018-08-18T07:33:27.296Z,63.90
2018-08-18T07:35:55.435Z,63.60
2018-08-18T07:38:23.502Z,63.40
2018-08-18T07:40:52.763Z,63.90
2018-08-18T07:43:24.616Z,61.40
2018-08-18T07:45:53.755Z,61.00
2018-08-18T07:48:21.747Z,60.80
2018-08-18T07:50:49.731Z,60.30
2018-08-18T07:53:17.901Z,60.40
2018-08-18T07:55:45.719Z,60.50
2018-08-18T07:58:15.421Z,60.00
2018-08-18T08:00:43.727Z,60.00
2018-08-18T08:03:13.130Z,60.30
2018-08-18T08:05:41.189Z,60.20
2018-08-18T08:08:09.766Z,59.80
2018-08-18T08:10:37.819Z,60.10
2018-08-18T08:13:05.939Z,60.20
2018-08-18T08:15:34.311Z,59.20
2018-08-18T08:18:02.297Z,58.60
2018-08-18T08:20:30.381Z,58.80
2018-08-18T08:22:58.357Z,57.60
2018-08-18T08:25:26.314Z,56.30
2018-08-18T08:27:54.786Z,56.60
2018-08-18T08:30:24.062Z,55.50
2018-08-18T08:32:52.076Z,56.20
2018-08-18T08:35:20.035Z,56.60
2018-08-18T08:37:50.152Z,56.20
2018-08-18T08:40:19.112Z,55.70
2018-08-18T08:42:47.103Z,55.00
2018-08-18T08:45:16.200Z,54.70
2018-08-18T08:47:45.065Z,54.60
2018-08-18T08:50:14.595Z,54.90
2018-08-18T08:52:50.005Z,54.60
2018-08-18T08:55:19.232Z,54.20
2018-08-18T08:57:47.325Z,53.20
2018-08-18T09:00:15.272Z,53.30
2018-08-18T09:02:43.539Z,53.80
2018-08-18T09:05:11.553Z,53.90
2018-08-18T09:07:39.896Z,54.20
2018-08-18T09:10:12.476Z,54.80
2018-08-18T09:12:40.438Z,54.60
2018-08-18T09:15:09.592Z,54.50
2018-08-18T09:17:37.579Z,54.40
2018-08-18T09:20:08.424Z,53.90
2018-08-18T09:22:47.424Z,53.80
2018-08-18T09:25:19.750Z,53.90
2018-08-18T09:27:51.955Z,53.10
2018-08-18T09:30:20.207Z,52.60
2018-08-18T09:32:48.170Z,52.20
2018-08-18T09:35:16.442Z,52.30
2018-08-18T09:37:48.676Z,52.50
2018-08-18T09:40:16.672Z,52.30
2018-08-18T09:42:44.640Z,52.20
2018-08-18T09:45:12.666Z,52.40
2018-08-18T09:47:40.997Z,52.00
2018-08-18T09:50:08.962Z,51.90
2018-08-18T09:52:36.909Z,51.60
2018-08-18T09:55:04.901Z,51.70
2018-08-18T09:57:32.859Z,51.70
2018-08-18T10:00:01.180Z,52.00
2018-08-18T10:02:29.136Z,52.00
2018-08-18T10:04:57.093Z,51.60
2018-08-18T10:07:25.044Z,51.30
2018-08-18T10:09:52.997Z,51.20
2018-08-18T10:12:20.941Z,50.60
2018-08-18T10:14:48.901Z,50.30
2018-08-18T10:17:16.876Z,50.60
2018-08-18T10:19:44.848Z,50.30
2018-08-18T10:22:12.805Z,49.90
2018-08-18T10:24:40.853Z,50.20
2018-08-18T10:27:09.163Z,49.70
2018-08-18T10:29:38.112Z,49.70
2018-08-18T10:32:06.055Z,49.50
2018-08-18T10:34:34.281Z,49.40
2018-08-18T10:37:07.165Z,48.80
2018-08-18T10:39:36.263Z,48.80
2018-08-18T10:42:06.809Z,48.90
2018-08-18T10:44:35.758Z,48.60
2018-08-18T10:47:09.367Z,48.90
2018-08-18T10:49:49.218Z,48.80
2018-08-18T10:52:30.130Z,48.80
2018-08-18T10:55:00.307Z,49.00
2018-08-18T10:58:06.180Z,49.50
2018-08-18T11:00:34.366Z,49.40
2018-08-18T11:03:03.750Z,48.90
2018-08-18T11:05:32.034Z,49.00
2018-08-18T11:08:04.422Z,49.00
2018-08-18T11:10:34.198Z,49.20
2018-08-18T11:13:02.295Z,48.80
2018-08-18T11:15:30.256Z,48.30
2018-08-18T11:17:58.843Z,49.00
2018-08-18T11:20:28.132Z,48.20
2018-08-18T11:22:59.113Z,48.00
2018-08-18T11:25:30.267Z,48.30
2018-08-18T11:27:58.954Z,49.00
2018-08-18T11:30:27.081Z,48.40
2018-08-18T11:32:56.333Z,48.70
2018-08-18T11:35:24.580Z,48.40
2018-08-18T11:37:56.838Z,48.70
2018-08-18T11:40:25.615Z,48.90
2018-08-18T11:43:01.817Z,49.00
2018-08-18T11:45:30.876Z,49.70
2018-08-18T11:48:00.584Z,50.00
2018-08-18T11:50:29.290Z,49.40
2018-08-18T11:52:57.365Z,48.70
2018-08-18T11:55:25.324Z,48.50
2018-08-18T11:57:58.089Z,48.30
2018-08-18T12:00:30.701Z,48.60
2018-08-18T12:03:01.468Z,48.50
2018-08-18T12:05:30.708Z,48.70
2018-08-18T12:07:58.726Z,48.60
2018-08-18T12:10:26.903Z,48.90
2018-08-18T12:12:54.827Z,48.80
2018-08-18T12:15:22.769Z,48.70
2018-08-18T12:17:57.313Z,48.30
2018-08-18T12:20:25.320Z,48.50
2018-08-18T12:22:54.615Z,48.50
2018-08-18T12:25:22.979Z,48.10
2018-08-18T12:27:51.170Z,48.10
2018-08-18T12:30:27.300Z,48.20
2018-08-18T12:32:55.589Z,48.30
2018-08-18T12:35:27.848Z,48.40
2018-08-18T12:37:55.815Z,48.40
2018-08-18T12:40:23.808Z,48.30
2018-08-18T12:42:51.739Z,48.30
2018-08-18T12:45:20.023Z,48.10
2018-08-18T12:48:03.799Z,48.10
2018-08-18T12:50:31.788Z,47.60
2018-08-18T12:52:59.738Z,47.90
2018-08-18T12:55:27.689Z,47.90
2018-08-18T12:57:55.652Z,47.90
2018-08-18T13:00:23.629Z,47.80
2018-08-18T13:02:53.432Z,47.80
2018-08-18T13:05:21.640Z,47.80
2018-08-18T13:07:49.615Z,48.20
2018-08-18T13:10:21.698Z,47.90
2018-08-18T13:12:50.383Z,47.90
2018-08-18T13:15:19.026Z,47.80
2018-08-18T13:17:47.042Z,47.90
2018-08-18T13:20:20.907Z,47.90
2018-08-18T13:22:49.190Z,48.00
2018-08-18T13:25:17.143Z,48.20
2018-08-18T13:27:49.154Z,48.20
2018-08-18T13:30:17.493Z,47.90
2018-08-18T13:32:45.436Z,47.70
2018-08-18T13:35:13.452Z,47.90
2018-08-18T13:37:41.398Z,47.80
2018-08-18T13:40:11.430Z,47.90
2018-08-18T13:42:39.820Z,47.40
2018-08-18T13:45:08.078Z,47.50
2018-08-18T13:47:36.057Z,47.40
2018-08-18T13:50:09.127Z,47.20
2018-08-18T13:52:41.419Z,47.10
2018-08-18T13:55:09.969Z,46.90
2018-08-18T13:57:38.007Z,46.70
2018-08-18T14:00:14.442Z,47.00
2018-08-18T14:02:43.436Z,47.00
2018-08-18T14:05:20.787Z,47.10
2018-08-18T14:07:54.316Z,47.00
2018-08-18T14:10:22.326Z,46.80
2018-08-18T14:12:50.347Z,47.10
2018-08-18T14:15:18.361Z,47.20
2018-08-18T14:17:46.311Z,47.20
2018-08-18T14:20:14.952Z,46.80
2018-08-18T14:22:42.988Z,46.80
2018-08-18T14:25:10.962Z,46.90
2018-08-18T14:27:41.248Z,46.90
2018-08-18T14:30:09.240Z,46.80
2018-08-18T14:32:37.185Z,47.00
2018-08-18T14:35:12.110Z,47.30
2018-08-18T14:37:41.245Z,46.80
2018-08-18T14:40:13.495Z,46.40
2018-08-18T14:42:41.446Z,46.40
2018-08-18T14:45:12.593Z,46.30
2018-08-18T14:47:40.574Z,46.50
2018-08-18T14:50:23.684Z,46.60
2018-08-18T14:52:51.672Z,46.80
2018-08-18T14:55:20.172Z,46.60
2018-08-18T14:57:54.060Z,46.40
2018-08-18T15:00:22.017Z,46.10
2018-08-18T15:02:50.024Z,46.30
2018-08-18T15:05:18.383Z,46.20
2018-08-18T15:07:51.661Z,47.10
2018-08-18T15:10:34.175Z,46.40
2018-08-18T15:13:02.855Z,46.40
2018-08-18T15:15:31.769Z,46.30
2018-08-18T15:18:01.373Z,46.50
2018-08-18T15:20:31.536Z,46.30
2018-08-18T15:22:59.781Z,46.00
2018-08-18T15:25:27.973Z,46.00
2018-08-18T15:27:57.882Z,46.00
2018-08-18T15:30:25.835Z,46.00
2018-08-18T15:32:53.783Z,46.20
2018-08-18T15:35:21.844Z,46.40
2018-08-18T15:37:49.820Z,46.40
2018-08-18T15:40:17.784Z,46.10
2018-08-18T15:42:45.759Z,46.20
2018-08-18T15:45:14.057Z,46.20
2018-08-18T15:47:42.000Z,46.30
2018-08-18T15:50:09.959Z,46.20
2018-08-18T15:52:38.187Z,46.30
2018-08-18T15:55:06.148Z,46.40
2018-08-18T15:57:34.156Z,46.90
2018-08-18T16:00:02.157Z,46.40
2018-08-18T16:02:30.480Z,46.40
2018-08-18T16:05:05.299Z,46.60
2018-08-18T16:07:33.295Z,46.70
2018-08-18T16:10:01.284Z,46.50
2018-08-18T16:12:29.255Z,46.70
2018-08-18T16:14:57.192Z,46.70
2018-08-18T16:17:25.243Z,46.50
2018-08-18T16:19:53.207Z,46.30
2018-08-18T16:22:21.193Z,46.30
2018-08-18T16:24:49.200Z,46.30
2018-08-18T16:27:17.489Z,46.30
2018-08-18T16:29:45.500Z,45.90
2018-08-18T16:32:24.239Z,45.90
2018-08-18T16:34:57.480Z,45.90
2018-08-18T16:37:26.540Z,46.70
2018-08-18T16:39:54.833Z,45.60
2018-08-18T16:42:22.813Z,45.50
2018-08-18T16:44:50.747Z,44.80
2018-08-18T16:47:18.779Z,45.60
2018-08-18T16:49:46.743Z,45.10
2018-08-18T16:52:15.056Z,45.00
2018-08-18T16:54:43.003Z,45.00
2018-08-18T16:57:10.959Z,44.80
2018-08-18T16:59:39.484Z,45.00
2018-08-18T17:02:18.008Z,44.70
2018-08-18T17:04:46.148Z,45.40
2018-08-18T17:07:23.464Z,44.60
2018-08-18T17:09:51.424Z,44.60
2018-08-18T17:12:20.701Z,44.30
2018-08-18T17:14:49.094Z,44.20
2018-08-18T17:17:17.103Z,44.20
2018-08-18T17:19:45.087Z,44.50
2018-08-18T17:22:14.648Z,44.70
2018-08-18T17:24:42.612Z,44.80
2018-08-18T17:27:10.651Z,44.90
2018-08-18T17:29:42.344Z,45.00
2018-08-18T17:32:10.520Z,45.00
2018-08-18T17:34:38.532Z,45.30
2018-08-18T17:37:06.685Z,45.40
2018-08-18T17:39:35.251Z,45.50
2018-08-18T17:42:03.280Z,45.50
2018-08-18T17:44:31.256Z,45.50
2018-08-18T17:47:03.266Z,45.60
2018-08-18T17:49:31.571Z,45.30
2018-08-18T17:52:05.837Z,46.10
2018-08-18T17:54:34.212Z,45.90
2018-08-18T17:57:02.480Z,46.00
2018-08-18T17:59:30.475Z,46.00
2018-08-18T18:02:05.805Z,46.10
2018-08-18T18:04:33.980Z,46.30
2018-08-18T18:07:01.972Z,46.40
2018-08-18T18:09:33.334Z,46.60
2018-08-18T18:12:30.767Z,46.70
2018-08-18T18:14:58.966Z,46.70
2018-08-18T18:17:27.383Z,46.80
2018-08-18T18:19:57.864Z,47.00
2018-08-18T18:22:31.867Z,46.90
2018-08-18T18:24:59.853Z,47.00
2018-08-18T18:27:27.804Z,47.20
2018-08-18T18:29:55.797Z,47.20
2018-08-18T18:32:24.064Z,47.30
2018-08-18T18:34:52.102Z,47.40
2018-08-18T18:37:19.991Z,47.60
2018-08-18T18:39:52.953Z,47.70
2018-08-18T18:42:20.904Z,47.80
2018-08-18T18:44:49.420Z,47.80
2018-08-18T18:47:17.556Z,48.70
2018-08-18T18:49:46.411Z,48.80
2018-08-18T18:52:14.440Z,48.10
2018-08-18T18:54:42.424Z,48.40
2018-08-18T18:57:10.571Z,48.40
2018-08-18T18:59:42.936Z,48.50
2018-08-18T19:02:10.944Z,48.60
2018-08-18T19:04:39.720Z,48.80
2018-08-18T19:07:07.950Z,48.80
2018-08-18T19:09:35.907Z,49.00
2018-08-18T19:12:03.862Z,49.20
2018-08-18T19:14:31.959Z,50.30
2018-08-18T19:16:59.876Z,50.00
2018-08-18T19:19:27.832Z,50.30
2018-08-18T19:21:55.840Z,50.60
2018-08-18T19:24:24.813Z,50.90
2018-08-18T19:26:55.057Z,51.20
2018-08-18T19:29:25.050Z,51.40
2018-08-18T19:31:55.177Z,51.50
2018-08-18T19:34:23.234Z,51.70
2018-08-18T19:36:59.696Z,51.80
2018-08-18T19:39:28.706Z,52.00
2018-08-18T19:42:04.215Z,51.90
2018-08-18T19:44:32.218Z,52.00
2018-08-18T19:47:00.173Z,52.00
2018-08-18T19:49:35.459Z,52.10
2018-08-18T19:52:08.162Z,52.10
2018-08-18T19:54:36.103Z,52.20
2018-08-18T19:57:04.063Z,52.30
2018-08-18T19:59:32.037Z,52.40
2018-08-18T20:02:00.095Z,52.60
2018-08-18T20:04:27.965Z,52.70
2018-08-18T20:06:55.891Z,52.80
2018-08-18T20:09:23.948Z,52.80
2018-08-18T20:11:51.897Z,52.90
2018-08-18T20:14:20.155Z,53.10
2018-08-18T20:16:48.107Z,53.10
2018-08-18T20:19:16.036Z,53.30
2018-08-18T20:21:44.047Z,53.40
2018-08-18T20:24:11.965Z,53.60
2018-08-18T20:26:40.216Z,53.90
2018-08-18T20:29:08.179Z,54.00
2018-08-18T20:31:39.826Z,54.20
2018-08-18T20:34:07.797Z,54.20
2018-08-18T20:36:39.271Z,54.30
2018-08-18T20:39:08.295Z,54.20
2018-08-18T20:41:36.334Z,54.30
2018-08-18T20:44:04.291Z,54.50
2018-08-18T20:46:32.575Z,54.60
2018-08-18T20:49:00.626Z,54.80
2018-08-18T20:54:07.652Z,56.10
2018-08-18T20:56:35.613Z,55.50
2018-08-18T20:59:03.594Z,55.70
2018-08-18T21:01:31.591Z,55.70
2018-08-18T21:03:59.583Z,55.80
2018-08-18T21:06:27.585Z,56.00
2018-08-18T21:08:55.533Z,56.10
2018-08-18T21:11:23.856Z,56.10
2018-08-18T21:13:52.212Z,56.20
2018-08-18T21:16:21.012Z,56.20
2018-08-18T21:18:48.988Z,56.20
2018-08-18T21:21:25.766Z,56.40
2018-08-18T21:23:53.934Z,56.40
2018-08-18T21:26:21.921Z,56.50
2018-08-18T21:28:52.264Z,56.50
2018-08-18T21:31:26.602Z,56.50
2018-08-18T21:33:56.011Z,56.70
2018-08-18T21:36:24.060Z,56.80
2018-08-18T21:38:52.272Z,56.80
2018-08-18T21:41:20.265Z,56.90
2018-08-18T21:43:48.202Z,56.90
2018-08-18T21:46:16.147Z,57.00
2018-08-18T21:48:47.597Z,57.00
2018-08-18T21:51:15.557Z,57.10
2018-08-18T21:53:44.302Z,57.10
2018-08-18T21:56:12.327Z,57.10
2018-08-18T21:58:40.325Z,57.10
2018-08-18T22:01:25.497Z,57.20
2018-08-18T22:03:55.232Z,57.30
2018-08-18T22:06:23.204Z,57.30
2018-08-18T22:08:51.124Z,57.30
2018-08-18T22:11:20.466Z,57.30
2018-08-18T22:13:53.347Z,57.30
2018-08-18T22:16:21.844Z,57.60
2018-08-18T22:18:56.372Z,57.60
2018-08-18T22:21:26.783Z,57.60
2018-08-18T22:23:56.191Z,57.60
2018-08-18T22:26:24.155Z,57.70
2018-08-18T22:29:04.014Z,57.80
2018-08-18T22:31:32.612Z,57.80
2018-08-18T22:34:01.791Z,57.80
2018-08-18T22:36:31.118Z,57.80
2018-08-18T22:38:59.590Z,57.90
2018-08-18T22:41:27.562Z,57.80
2018-08-18T22:43:56.222Z,57.90
2018-08-18T22:46:24.251Z,58.20
2018-08-18T22:48:52.393Z,58.20
2018-08-18T22:51:20.231Z,58.30
2018-08-18T22:53:51.292Z,58.30
2018-08-18T22:56:19.230Z,58.30
2018-08-18T22:59:03.144Z,58.90
2018-08-18T23:01:31.470Z,58.30
2018-08-18T23:03:59.854Z,58.40
2018-08-18T23:06:28.964Z,58.50
2018-08-18T23:08:56.902Z,58.50
2018-08-18T23:11:24.871Z,58.60
2018-08-18T23:13:52.894Z,58.80
2018-08-18T23:16:20.854Z,58.90
2018-08-18T23:18:48.794Z,59.80
2018-08-18T23:21:24.972Z,59.30
2018-08-18T23:23:53.012Z,59.30
2018-08-18T23:26:20.980Z,59.40
2018-08-18T23:28:49.407Z,59.40
2018-08-18T23:31:17.398Z,59.50
2018-08-18T23:33:45.377Z,59.40
2018-08-18T23:36:13.342Z,59.60
2018-08-18T23:38:48.549Z,59.60
2018-08-18T23:41:17.332Z,59.80
2018-08-18T23:43:45.589Z,59.90
2018-08-18T23:46:13.560Z,59.90
2018-08-18T23:48:41.505Z,60.00
2018-08-18T23:51:09.456Z,60.00
2018-08-18T23:53:37.424Z,60.00
2018-08-18T23:56:08.628Z,60.10
2018-08-18T23:58:36.752Z,60.00
